createdAt,value
2018-08-22T00:01:37.918Z,27.80
2018-08-22T00:04:16.652Z,27.70
2018-08-22T00:09:47.062Z,27.60
2018-08-22T00:12:33.235Z,27.70
2018-08-22T00:15:03.846Z,28.00
2018-08-22T00:17:42.774Z,28.10
2018-08-22T00:20:11.178Z,28.20
2018-08-22T00:22:43.238Z,28.00
2018-08-22T00:25:17.393Z,27.30
2018-08-22T00:27:49.955Z,26.90
2018-08-22T00:30:19.611Z,27.10
2018-08-22T00:32:51.776Z,27.40
2018-08-22T00:35:25.830Z,27.70
2018-08-22T00:37:56.608Z,27.90
2018-08-22T00:40:26.035Z,28.00
2018-08-22T00:45:39.860Z,27.30
2018-08-22T00:48:12.057Z,26.60
2018-08-22T00:50:41.273Z,26.20
2018-08-22T00:53:13.207Z,26.10
2018-08-22T00:55:44.211Z,26.70
2018-08-22T00:58:17.712Z,27.20
2018-08-22T01:00:50.459Z,27.50
2018-08-22T01:03:22.425Z,27.70
2018-08-22T01:05:50.715Z,27.80
2018-08-22T01:08:18.523Z,27.90
2018-08-22T01:10:57.747Z,27.80
2018-08-22T01:13:29.333Z,26.90
2018-08-22T01:16:04.884Z,26.30
2018-08-22T01:21:11.484Z,27.10
2018-08-22T01:23:42.375Z,27.40
2018-08-22T01:26:11.087Z,27.20
2018-08-22T01:28:42.947Z,26.80
2018-08-22T01:31:13.235Z,26.30
2018-08-22T01:33:43.142Z,26.00
2018-08-22T01:36:16.147Z,26.00
2018-08-22T01:38:45.263Z,26.40
2018-08-22T01:41:20.543Z,26.80
2018-08-22T01:43:54.585Z,27.20
2018-08-22T01:46:27.168Z,27.40
2018-08-22T01:48:59.625Z,27.50
2018-08-22T01:51:30.500Z,27.60
2018-08-22T01:54:03.905Z,27.60
2018-08-22T01:56:33.536Z,27.60
2018-08-22T01:59:04.264Z,27.50
2018-08-22T02:01:38.867Z,27.60
2018-08-22T02:04:11.443Z,27.70
2018-08-22T02:06:42.157Z,27.70
2018-08-22T02:09:15.874Z,27.70
2018-08-22T02:11:46.733Z,27.70
2018-08-22T02:14:20.472Z,27.70
2018-08-22T02:16:54.127Z,27.80
2018-08-22T02:19:23.451Z,27.80
2018-08-22T02:21:56.270Z,27.70
2018-08-22T02:24:29.420Z,27.60
2018-08-22T02:26:59.063Z,27.50
2018-08-22T02:29:34.171Z,27.40
2018-08-22T02:32:04.363Z,27.40
2018-08-22T02:34:38.800Z,27.50
2018-08-22T02:37:08.652Z,27.50
2018-08-22T02:39:38.273Z,27.60
2018-08-22T02:42:13.702Z,27.60
2018-08-22T02:44:52.698Z,27.60
2018-08-22T02:47:24.739Z,27.50
2018-08-22T02:49:54.203Z,27.40
2018-08-22T02:52:23.395Z,27.40
2018-08-22T02:54:57.514Z,27.40
2018-08-22T02:57:29.196Z,27.50
2018-08-22T03:00:00.521Z,27.50
2018-08-22T03:02:30.771Z,27.50
2018-08-22T03:05:02.396Z,27.60
2018-08-22T03:07:37.518Z,27.50
2018-08-22T03:10:07.576Z,27.60
2018-08-22T03:12:37.248Z,27.60
2018-08-22T03:15:09.247Z,27.50
2018-08-22T03:17:44.775Z,27.40
2018-08-22T03:20:18.303Z,27.40
2018-08-22T03:25:26.896Z,27.40
2018-08-22T03:28:01.010Z,27.20
2018-08-22T03:30:37.069Z,27.20
2018-08-22T03:33:06.144Z,27.30
2018-08-22T03:35:38.204Z,27.40
2018-08-22T03:38:16.537Z,27.40
2018-08-22T03:40:47.018Z,27.40
2018-08-22T03:43:17.430Z,27.40
2018-08-22T03:45:46.477Z,27.40
2018-08-22T03:48:17.329Z,27.40
2018-08-22T03:50:49.519Z,27.40
2018-08-22T03:53:22.642Z,27.10
2018-08-22T03:55:52.507Z,27.00
2018-08-22T03:58:21.207Z,26.90
2018-08-22T04:00:52.091Z,27.00
2018-08-22T04:03:28.876Z,27.10
2018-08-22T04:06:06.536Z,27.20
2018-08-22T04:11:21.739Z,27.20
2018-08-22T04:13:54.138Z,27.20
2018-08-22T04:16:26.427Z,27.10
2018-08-22T04:18:57.204Z,27.10
2018-08-22T04:21:25.547Z,27.10
2018-08-22T04:23:55.097Z,27.20
2018-08-22T04:26:23.293Z,27.20
2018-08-22T04:28:52.784Z,27.20
2018-08-22T04:31:22.016Z,27.20
2018-08-22T04:33:51.918Z,27.20
2018-08-22T04:36:23.343Z,27.10
2018-08-22T04:38:56.358Z,27.10
2018-08-22T04:41:25.407Z,27.10
2018-08-22T04:44:07.644Z,27.20
2018-08-22T04:46:38.837Z,27.20
2018-08-22T04:49:10.024Z,27.20
2018-08-22T04:51:40.239Z,27.10
2018-08-22T04:54:11.976Z,27.10
2018-08-22T04:56:41.687Z,27.00
2018-08-22T04:59:15.767Z,26.90
2018-08-22T05:01:50.007Z,26.80
2018-08-22T05:04:20.215Z,26.80
2018-08-22T05:06:49.739Z,26.90
2018-08-22T05:09:25.384Z,26.90
2018-08-22T05:12:00.095Z,27.00
2018-08-22T05:14:30.833Z,27.10
2018-08-22T05:17:03.128Z,27.20
2018-08-22T05:19:40.705Z,27.20
2018-08-22T05:22:11.202Z,27.10
2018-08-22T05:24:46.024Z,27.00
2018-08-22T05:27:16.603Z,26.90
2018-08-22T05:29:48.670Z,27.00
2018-08-22T05:32:22.883Z,27.10
2018-08-22T05:34:53.795Z,27.20
2018-08-22T05:37:25.047Z,27.30
2018-08-22T05:39:57.516Z,27.30
2018-08-22T05:42:27.982Z,27.30
2018-08-22T05:44:59.469Z,27.20
2018-08-22T05:47:33.820Z,27.30
2018-08-22T05:50:08.663Z,27.30
2018-08-22T05:52:37.634Z,27.40
2018-08-22T05:55:17.181Z,27.40
2018-08-22T05:57:51.704Z,27.40
2018-08-22T06:00:27.767Z,27.40
2018-08-22T06:02:57.234Z,27.30
2018-08-22T06:05:32.616Z,27.10
2018-08-22T06:08:02.410Z,27.20
2018-08-22T06:10:34.888Z,26.90
2018-08-22T06:13:03.905Z,26.80
2018-08-22T06:15:40.840Z,27.00
2018-08-22T06:18:11.147Z,27.40
2018-08-22T06:20:42.962Z,27.70
2018-08-22T06:23:11.891Z,27.90
2018-08-22T06:25:47.364Z,28.10
2018-08-22T06:28:21.635Z,28.10
2018-08-22T06:30:53.480Z,28.10
2018-08-22T06:33:29.808Z,28.30
2018-08-22T06:35:58.703Z,28.40
2018-08-22T06:38:27.355Z,28.60
2018-08-22T06:40:58.006Z,28.60
2018-08-22T06:43:25.751Z,28.70
2018-08-22T06:45:55.727Z,28.70
2018-08-22T06:48:29.855Z,28.50
2018-08-22T06:51:01.046Z,28.50
2018-08-22T06:53:34.211Z,28.70
2018-08-22T06:56:04.714Z,28.90
2018-08-22T06:58:36.991Z,28.90
2018-08-22T07:01:08.660Z,29.00
2018-08-22T07:03:42.715Z,29.10
2018-08-22T07:06:14.291Z,29.20
2018-08-22T07:08:45.091Z,29.30
2018-08-22T07:11:18.929Z,29.50
2018-08-22T07:13:50.288Z,29.60
2018-08-22T07:16:18.503Z,29.60
2018-08-22T07:18:47.628Z,29.70
2018-08-22T07:21:18.276Z,29.90
2018-08-22T07:23:58.007Z,30.10
2018-08-22T07:26:32.172Z,30.10
2018-08-22T07:29:08.524Z,30.10
2018-08-22T07:31:41.924Z,30.30
2018-08-22T07:34:13.859Z,30.50
2018-08-22T07:36:48.147Z,30.60
2018-08-22T07:39:20.254Z,30.80
2018-08-22T07:41:52.139Z,31.00
2018-08-22T07:44:28.658Z,31.00
2018-08-22T07:46:59.370Z,31.10
2018-08-22T07:49:32.191Z,31.10
2018-08-22T07:52:09.324Z,31.30
2018-08-22T07:54:43.188Z,31.60
2018-08-22T07:57:16.523Z,31.70
2018-08-22T07:59:46.948Z,31.70
2018-08-22T08:02:19.132Z,31.60
2018-08-22T08:04:50.139Z,31.90
2018-08-22T08:07:23.563Z,32.00
2018-08-22T08:09:58.977Z,32.10
2018-08-22T08:12:31.727Z,32.20
2018-08-22T08:15:07.383Z,32.30
2018-08-22T08:17:40.612Z,32.00
2018-08-22T08:20:09.986Z,32.00
2018-08-22T08:22:44.604Z,32.10
2018-08-22T08:25:13.544Z,32.30
2018-08-22T08:27:45.412Z,32.40
2018-08-22T08:30:19.206Z,32.30
2018-08-22T08:32:51.040Z,32.10
2018-08-22T08:35:23.853Z,32.10
2018-08-22T08:37:55.792Z,32.50
2018-08-22T08:40:28.707Z,33.00
2018-08-22T08:42:59.144Z,33.00
2018-08-22T08:45:32.612Z,32.80
2018-08-22T08:48:05.347Z,32.60
2018-08-22T08:50:39.624Z,32.40
2018-08-22T08:53:13.552Z,32.30
2018-08-22T08:58:21.368Z,32.50
2018-08-22T09:00:54.298Z,32.40
2018-08-22T09:03:26.162Z,32.50
2018-08-22T09:05:55.660Z,32.70
2018-08-22T09:08:28.719Z,32.80
2018-08-22T09:10:58.960Z,32.90
2018-08-22T09:13:29.683Z,32.80
2018-08-22T09:16:00.486Z,33.30
2018-08-22T09:18:34.219Z,33.60
2018-08-22T09:21:07.817Z,34.10
2018-08-22T09:23:38.937Z,35.00
2018-08-22T09:26:07.627Z,35.00
2018-08-22T09:28:38.276Z,35.80
2018-08-22T09:31:11.896Z,36.10
2018-08-22T09:36:21.819Z,37.50
2018-08-22T09:38:55.679Z,37.20
2018-08-22T09:41:25.186Z,36.30
2018-08-22T09:43:58.702Z,35.90
2018-08-22T09:46:33.834Z,35.80
2018-08-22T09:49:09.543Z,35.50
2018-08-22T09:51:41.119Z,35.70
2018-08-22T09:56:55.366Z,37.20
2018-08-22T09:59:26.272Z,38.00
2018-08-22T10:01:55.067Z,38.80
2018-08-22T10:04:26.232Z,39.00
2018-08-22T10:06:58.249Z,39.50
2018-08-22T10:09:34.223Z,39.50
2018-08-22T10:12:05.214Z,40.10
2018-08-22T10:14:33.777Z,40.00
2018-08-22T10:17:07.169Z,40.40
2018-08-22T10:19:35.389Z,40.80
2018-08-22T10:22:04.055Z,41.20
2018-08-22T10:24:38.586Z,42.40
2018-08-22T10:27:08.462Z,43.20
2018-08-22T10:29:47.988Z,42.90
2018-08-22T10:32:16.185Z,42.30
2018-08-22T10:34:46.819Z,41.70
2018-08-22T10:37:17.480Z,41.30
2018-08-22T10:39:50.279Z,41.30
2018-08-22T10:42:25.695Z,41.80
2018-08-22T10:44:59.852Z,42.60
2018-08-22T10:47:32.344Z,42.30
2018-08-22T10:50:02.102Z,43.60
2018-08-22T10:52:32.438Z,44.00
2018-08-22T10:55:04.013Z,44.60
2018-08-22T10:57:35.324Z,43.10
2018-08-22T11:00:04.171Z,43.60
2018-08-22T11:02:37.195Z,44.30
2018-08-22T11:05:08.768Z,45.00
2018-08-22T11:07:37.695Z,44.60
2018-08-22T11:10:06.480Z,44.40
2018-08-22T11:15:13.744Z,44.90
2018-08-22T11:17:43.443Z,45.70
2018-08-22T11:20:13.644Z,45.80
2018-08-22T11:22:52.608Z,44.80
2018-08-22T11:25:33.748Z,44.30
2018-08-22T11:28:13.200Z,44.70
2018-08-22T11:30:54.426Z,45.20
2018-08-22T11:33:40.503Z,44.30
2018-08-22T11:36:07.878Z,43.00
2018-08-22T11:38:40.072Z,43.10
2018-08-22T11:41:12.106Z,43.40
2018-08-22T11:43:49.787Z,42.70
2018-08-22T11:46:23.283Z,41.90
2018-08-22T11:48:58.853Z,42.00
2018-08-22T11:51:29.403Z,41.80
2018-08-22T11:56:39.841Z,41.80
2018-08-22T11:59:16.836Z,39.80
2018-08-22T12:01:48.834Z,37.60
2018-08-22T12:04:18.300Z,36.10
2018-08-22T12:06:53.367Z,35.60
2018-08-22T12:09:22.801Z,34.80
2018-08-22T12:11:54.940Z,34.70
2018-08-22T12:14:28.989Z,34.40
2018-08-22T12:17:03.588Z,33.90
2018-08-22T12:19:32.797Z,33.20
2018-08-22T12:22:03.580Z,32.70
2018-08-22T12:24:31.252Z,32.40
2018-08-22T12:27:01.488Z,32.20
2018-08-22T12:29:32.701Z,32.00
2018-08-22T12:32:04.413Z,31.80
2018-08-22T12:34:37.728Z,31.60
2018-08-22T12:37:07.044Z,31.50
2018-08-22T12:39:38.407Z,31.40
2018-08-22T12:42:10.280Z,31.40
2018-08-22T12:44:42.432Z,31.40
2018-08-22T12:47:13.400Z,31.50
2018-08-22T12:49:47.623Z,31.60
2018-08-22T12:52:20.936Z,33.10
2018-08-22T12:54:55.358Z,33.70
2018-08-22T12:57:27.973Z,33.50
2018-08-22T12:59:57.295Z,32.80
2018-08-22T13:02:29.907Z,32.10
2018-08-22T13:05:00.531Z,32.00
2018-08-22T13:07:34.122Z,31.70
2018-08-22T13:10:06.072Z,31.40
2018-08-22T13:12:35.939Z,31.20
2018-08-22T13:15:08.777Z,31.10
2018-08-22T13:17:41.190Z,31.00
2018-08-22T13:20:13.640Z,31.10
2018-08-22T13:22:48.618Z,31.80
2018-08-22T13:25:28.099Z,34.00
2018-08-22T13:28:02.275Z,35.10
2018-08-22T13:30:35.636Z,37.00
2018-08-22T13:33:08.712Z,37.30
2018-08-22T13:35:41.077Z,37.00
2018-08-22T13:38:16.082Z,37.30
2018-08-22T13:40:46.976Z,37.00
2018-08-22T13:43:18.713Z,36.40
2018-08-22T13:45:55.435Z,36.40
2018-08-22T13:51:08.901Z,36.30
2018-08-22T13:53:40.036Z,35.90
2018-08-22T13:56:11.347Z,35.40
2018-08-22T13:58:44.089Z,34.70
2018-08-22T14:01:18.382Z,34.20
2018-08-22T14:03:51.462Z,33.50
2018-08-22T14:06:26.243Z,33.20
2018-08-22T14:08:56.829Z,32.70
2018-08-22T14:11:29.463Z,32.20
2018-08-22T14:13:58.183Z,31.80
2018-08-22T14:16:28.793Z,31.90
2018-08-22T14:18:58.198Z,32.20
2018-08-22T14:21:28.318Z,33.00
2018-08-22T14:24:00.240Z,33.80
2018-08-22T14:26:30.329Z,35.10
2018-08-22T14:28:59.506Z,35.40
2018-08-22T14:31:29.355Z,35.30
2018-08-22T14:34:00.057Z,34.90
2018-08-22T14:36:30.752Z,33.60
2018-08-22T14:39:01.171Z,32.90
2018-08-22T14:41:35.512Z,32.40
2018-08-22T14:44:08.863Z,31.80
2018-08-22T14:46:40.328Z,31.30
2018-08-22T14:49:17.373Z,31.00
2018-08-22T14:51:49.880Z,30.90
2018-08-22T14:54:23.434Z,30.70
2018-08-22T14:56:54.501Z,30.80
2018-08-22T14:59:30.396Z,30.80
2018-08-22T15:02:05.424Z,30.80
2018-08-22T15:04:41.613Z,30.60
2018-08-22T15:07:18.368Z,30.60
2018-08-22T15:09:54.434Z,30.60
2018-08-22T15:12:23.641Z,30.80
2018-08-22T15:14:54.385Z,31.00
2018-08-22T15:17:27.019Z,31.40
2018-08-22T15:20:01.342Z,31.60
2018-08-22T15:28:04.084Z,32.20
2018-08-22T15:30:40.707Z,31.90
2018-08-22T15:33:13.268Z,31.20
2018-08-22T15:35:42.512Z,30.30
2018-08-22T15:38:11.847Z,30.00
2018-08-22T15:40:40.764Z,29.40
2018-08-22T15:43:11.223Z,29.30
2018-08-22T15:45:42.517Z,29.10
2018-08-22T15:48:16.083Z,29.00
2018-08-22T15:50:47.935Z,28.80
2018-08-22T15:53:20.383Z,28.50
2018-08-22T15:55:58.687Z,28.40
2018-08-22T15:58:29.996Z,28.20
2018-08-22T16:01:02.127Z,28.20
2018-08-22T16:03:33.431Z,28.00
2018-08-22T16:06:02.295Z,28.10
2018-08-22T16:08:33.696Z,27.90
2018-08-22T16:11:08.809Z,27.90
2018-08-22T16:13:43.576Z,28.10
2018-08-22T16:16:12.928Z,28.10
2018-08-22T16:18:45.645Z,28.10
2018-08-22T16:21:14.194Z,28.30
2018-08-22T16:23:50.473Z,28.50
2018-08-22T16:26:23.234Z,28.60
2018-08-22T16:28:56.787Z,28.70
2018-08-22T16:32:01.686Z,29.10
2018-08-22T16:34:30.509Z,29.20
2018-08-22T16:37:04.376Z,29.50
2018-08-22T16:39:48.851Z,29.50
2018-08-22T16:42:28.811Z,29.50
2018-08-22T16:44:59.928Z,29.60
2018-08-22T16:47:40.870Z,29.70
2018-08-22T16:50:13.629Z,29.40
2018-08-22T16:52:45.453Z,29.50
2018-08-22T16:55:24.044Z,29.60
2018-08-22T16:57:55.318Z,29.80
2018-08-22T17:00:37.488Z,29.80
2018-08-22T17:03:10.609Z,29.90
2018-08-22T17:05:46.349Z,29.90
2018-08-22T17:08:20.455Z,29.60
2018-08-22T17:10:59.849Z,29.70
2018-08-22T17:13:40.486Z,29.80
2018-08-22T17:16:12.675Z,29.80
2018-08-22T17:18:44.131Z,29.80
2018-08-22T17:21:12.644Z,30.00
2018-08-22T17:23:48.111Z,30.00
2018-08-22T17:26:23.784Z,30.10
2018-08-22T17:28:59.270Z,30.10
2018-08-22T17:31:29.598Z,30.20
2018-08-22T17:34:03.532Z,30.10
2018-08-22T17:36:40.905Z,30.00
2018-08-22T17:41:52.843Z,30.00
2018-08-22T17:44:26.441Z,30.00
2018-08-22T17:47:00.611Z,30.10
2018-08-22T17:49:32.846Z,30.00
2018-08-22T17:52:16.994Z,30.00
2018-08-22T17:54:50.361Z,29.90
2018-08-22T17:57:22.579Z,29.70
2018-08-22T17:59:53.971Z,29.70
2018-08-22T18:02:25.659Z,29.90
2018-08-22T18:05:01.553Z,29.80
2018-08-22T18:07:35.952Z,29.50
2018-08-22T18:10:08.365Z,29.50
2018-08-22T18:12:39.974Z,29.60
2018-08-22T18:15:11.308Z,29.50
2018-08-22T18:17:42.083Z,29.50
2018-08-22T18:20:14.090Z,29.60
2018-08-22T18:22:47.968Z,29.40
2018-08-22T18:25:18.712Z,29.20
2018-08-22T18:27:54.314Z,29.30
2018-08-22T18:30:27.232Z,29.50
2018-08-22T18:33:16.819Z,29.40
2018-08-22T18:38:38.388Z,28.90
2018-08-22T18:41:07.354Z,28.90
2018-08-22T18:43:39.089Z,29.20
2018-08-22T18:46:14.996Z,29.40
2018-08-22T18:48:45.891Z,29.50
2018-08-22T18:51:19.241Z,29.50
2018-08-22T18:53:52.411Z,29.50
2018-08-22T18:56:25.309Z,29.60
2018-08-22T18:59:00.006Z,29.60
2018-08-22T19:01:30.499Z,29.60
2018-08-22T19:03:59.516Z,29.60
2018-08-22T19:06:28.056Z,29.50
2018-08-22T19:08:58.934Z,29.60
2018-08-22T19:11:30.536Z,29.60
2018-08-22T19:14:01.675Z,29.60
2018-08-22T19:19:10.251Z,29.50
2018-08-22T19:21:41.575Z,29.50
2018-08-22T19:27:19.345Z,29.40
2018-08-22T19:29:58.413Z,29.40
2018-08-22T19:32:31.129Z,29.40
2018-08-22T19:35:14.354Z,29.30
2018-08-22T19:37:44.895Z,29.30
2018-08-22T19:40:14.404Z,29.30
2018-08-22T19:42:47.134Z,29.40
2018-08-22T19:45:18.273Z,29.40
2018-08-22T19:47:54.187Z,29.40
2018-08-22T19:50:27.304Z,29.40
2018-08-22T19:53:00.180Z,29.40
2018-08-22T19:55:35.157Z,29.30
2018-08-22T19:58:07.208Z,29.20
2018-08-22T20:00:40.527Z,29.20
2018-08-22T20:03:13.207Z,29.20
2018-08-22T20:05:52.959Z,28.90
2018-08-22T20:08:27.064Z,29.00
2018-08-22T20:10:59.220Z,29.10
2018-08-22T20:13:38.381Z,29.20
2018-08-22T20:18:47.089Z,28.60
2018-08-22T20:21:32.759Z,28.40
2018-08-22T20:24:10.600Z,28.70
2018-08-22T20:26:52.588Z,28.90
2018-08-22T20:29:23.464Z,29.00
2018-08-22T20:34:38.585Z,29.10
2018-08-22T20:37:08.742Z,29.10
2018-08-22T20:39:40.940Z,29.10
2018-08-22T20:42:19.028Z,29.10
2018-08-22T20:44:48.702Z,29.10
2018-08-22T20:47:21.109Z,29.00
2018-08-22T20:49:56.792Z,29.00
2018-08-22T20:52:32.549Z,29.10
2018-08-22T20:55:15.535Z,29.10
2018-08-22T20:57:48.859Z,29.10
2018-08-22T21:00:20.856Z,29.10
2018-08-22T21:02:52.739Z,29.10
2018-08-22T21:05:23.293Z,29.10
2018-08-22T21:07:56.689Z,29.10
2018-08-22T21:10:26.234Z,29.10
2018-08-22T21:13:03.852Z,28.90
2018-08-22T21:15:44.761Z,28.80
2018-08-22T21:18:26.392Z,28.50
2018-08-22T21:20:56.999Z,28.50
2018-08-22T21:23:30.116Z,28.50
2018-08-22T21:26:02.024Z,28.70
2018-08-22T21:28:35.682Z,28.80
2018-08-22T21:31:08.692Z,28.80
2018-08-22T21:33:39.712Z,28.90
2018-08-22T21:36:12.148Z,28.90
2018-08-22T21:38:47.844Z,28.90
2018-08-22T21:41:25.147Z,28.80
2018-08-22T21:43:57.533Z,28.80
2018-08-22T21:46:28.498Z,28.70
2018-08-22T21:49:04.035Z,28.80
2018-08-22T21:51:39.602Z,28.80
2018-08-22T21:54:11.927Z,28.90
2018-08-22T21:56:40.568Z,28.90
2018-08-22T21:59:14.497Z,28.80
2018-08-22T22:01:54.486Z,28.30
2018-08-22T22:04:31.338Z,28.00
2018-08-22T22:07:08.750Z,28.10
2018-08-22T22:09:40.635Z,28.30
2018-08-22T22:12:18.875Z,28.50
2018-08-22T22:14:52.580Z,28.50
2018-08-22T22:17:23.338Z,28.10
2018-08-22T22:19:52.943Z,27.80
2018-08-22T22:22:23.435Z,28.10
2018-08-22T22:25:01.893Z,28.40
2018-08-22T22:27:33.293Z,28.40
2018-08-22T22:30:06.768Z,28.50
2018-08-22T22:32:38.972Z,28.20
2018-08-22T22:35:11.510Z,28.10
2018-08-22T22:37:42.570Z,28.30
2018-08-22T22:40:16.353Z,28.40
2018-08-22T22:42:50.587Z,28.50
2018-08-22T22:45:23.995Z,28.60
2018-08-22T22:48:00.111Z,28.60
2018-08-22T22:50:32.743Z,28.60
2018-08-22T22:53:05.869Z,28.60
2018-08-22T22:55:38.463Z,28.20
2018-08-22T22:58:09.455Z,27.20
2018-08-22T23:00:38.001Z,26.40
2018-08-22T23:03:13.811Z,26.00
2018-08-22T23:05:42.497Z,25.90
2018-08-22T23:08:19.148Z,25.90
2018-08-22T23:10:49.697Z,26.00
2018-08-22T23:13:28.575Z,26.40
2018-08-22T23:16:03.113Z,27.00
2018-08-22T23:18:34.543Z,27.50
2018-08-22T23:21:08.700Z,27.70
2018-08-22T23:23:43.140Z,27.90
2018-08-22T23:26:19.404Z,27.90
2018-08-22T23:28:51.002Z,27.90
2018-08-22T23:31:20.827Z,28.00
2018-08-22T23:33:50.526Z,28.10
2018-08-22T23:36:20.888Z,28.10
2018-08-22T23:38:49.724Z,28.20
2018-08-22T23:41:18.007Z,28.10
2018-08-22T23:43:53.574Z,28.00
2018-08-22T23:46:24.671Z,28.00
2018-08-22T23:48:58.760Z,27.70
2018-08-22T23:51:28.991Z,27.80
2018-08-22T23:54:04.569Z,28.00
2018-08-22T23:56:35.327Z,28.10
2018-08-22T23:59:06.384Z,28.20
